sensor_id;sensor_type;location;lat;lon;timestamp;pressure;altitude;pressure_sealevel;temperature;humidity
77979;BME280;67169;50.268;8.694;2023-12-20T00:00:11;99736.56;;;3.47;100.00
77979;BME280;67169;50.268;8.694;2023-12-20T00:02:37;99733.94;;;3.44;100.00
77979;BME280;67169;50.268;8.694;2023-12-20T00:05:05;99728.63;;;3.45;100.00
77979;BME280;67169;50.268;8.694;2023-12-20T00:07:33;99731.28;;;3.44;100.00
77979;BME280;67169;50.268;8.694;2023-12-20T00:09:59;99732.19;;;3.43;100.00
77979;BME280;67169;50.268;8.694;2023-12-20T00:12:26;99718.00;;;3.42;100.00
77979;BME280;67169;50.268;8.694;2023-12-20T00:14:52;99721.47;;;3.47;100.00
77979;BME280;67169;50.268;8.694;2023-12-20T00:17:19;99714.44;;;3.43;100.00
77979;BME280;67169;50.268;8.694;2023-12-20T00:19:46;99724.16;;;3.46;100.00
77979;BME280;67169;50.268;8.694;2023-12-20T00:22:12;99719.75;;;3.43;100.00
77979;BME280;67169;50.268;8.694;2023-12-20T00:24:40;99709.13;;;3.43;100.00
77979;BME280;67169;50.268;8.694;2023-12-20T00:27:07;99714.44;;;3.45;100.00
77979;BME280;67169;50.268;8.694;2023-12-20T00:29:34;99714.41;;;3.48;100.00
77979;BME280;67169;50.268;8.694;2023-12-20T00:32:00;99702.88;;;3.49;100.00
77979;BME280;67169;50.268;8.694;2023-12-20T00:34:27;99699.31;;;3.50;100.00
77979;BME280;67169;50.268;8.694;2023-12-20T00:36:53;99708.19;;;3.49;100.00
77979;BME280;67169;50.268;8.694;2023-12-20T00:39:20;99711.69;;;3.51;100.00
77979;BME280;67169;50.268;8.694;2023-12-20T00:41:48;99708.19;;;3.49;100.00
77979;BME280;67169;50.268;8.694;2023-12-20T00:44:14;99697.56;;;3.49;100.00
77979;BME280;67169;50.268;8.694;2023-12-20T00:46:41;99706.44;;;3.48;100.00
77979;BME280;67169;50.268;8.694;2023-12-20T00:49:07;99705.53;;;3.47;100.00
77979;BME280;67169;50.268;8.694;2023-12-20T00:51:34;99706.44;;;3.48;100.00
77979;BME280;67169;50.268;8.694;2023-12-20T00:54:01;99708.19;;;3.49;100.00
77979;BME280;67169;50.268;8.694;2023-12-20T00:56:27;99709.97;;;3.47;100.00
77979;BME280;67169;50.268;8.694;2023-12-20T00:58:55;99695.81;;;3.48;100.00
77979;BME280;67169;50.268;8.694;2023-12-20T01:01:22;99692.31;;;3.44;100.00
77979;BME280;67169;50.268;8.694;2023-12-20T01:03:48;99683.44;;;3.42;100.00
77979;BME280;67169;50.268;8.694;2023-12-20T01:06:16;99674.66;;;3.36;100.00
77979;BME280;67169;50.268;8.694;2023-12-20T01:08:43;99692.31;;;3.43;100.00
77979;BME280;67169;50.268;8.694;2023-12-20T01:11:09;99684.31;;;3.43;100.00
77979;BME280;67169;50.268;8.694;2023-12-20T01:13:36;99680.78;;;3.42;100.00
77979;BME280;67169;50.268;8.694;2023-12-20T01:16:04;99668.50;;;3.32;100.00
77979;BME280;67169;50.268;8.694;2023-12-20T01:18:31;99683.47;;;3.41;100.00
77979;BME280;67169;50.268;8.694;2023-12-20T01:21:01;99676.38;;;3.40;100.00
77979;BME280;67169;50.268;8.694;2023-12-20T01:23:28;99678.16;;;3.41;100.00
77979;BME280;67169;50.268;8.694;2023-12-20T01:25:54;99656.00;;;3.39;100.00
77979;BME280;67169;50.268;8.694;2023-12-20T01:28:21;99644.59;;;3.30;100.00
77979;BME280;67169;50.268;8.694;2023-12-20T01:30:48;99663.09;;;3.40;100.00
77979;BME280;67169;50.268;8.694;2023-12-20T01:33:16;99678.16;;;3.39;100.00
77979;BME280;67169;50.268;8.694;2023-12-20T01:35:42;99675.50;;;3.39;100.00
77979;BME280;67169;50.268;8.694;2023-12-20T01:38:09;99665.75;;;3.40;100.00
77979;BME280;67169;50.268;8.694;2023-12-20T01:40:35;99675.50;;;3.39;100.00
77979;BME280;67169;50.268;8.694;2023-12-20T01:43:06;99672.84;;;3.41;100.00
77979;BME280;67169;50.268;8.694;2023-12-20T01:45:34;99685.25;;;3.39;100.00
77979;BME280;67169;50.268;8.694;2023-12-20T01:48:01;99686.16;;;3.38;100.00
77979;BME280;67169;50.268;8.694;2023-12-20T01:50:31;99682.59;;;3.39;100.00
77979;BME280;67169;50.268;8.694;2023-12-20T01:52:58;99697.63;;;3.40;100.00
77979;BME280;67169;50.268;8.694;2023-12-20T01:55:27;99695.88;;;3.39;100.00
77979;BME280;67169;50.268;8.694;2023-12-20T01:57:56;99697.66;;;3.37;100.00
77979;BME280;67169;50.268;8.694;2023-12-20T02:00:23;99707.44;;;3.36;100.00
77979;BME280;67169;50.268;8.694;2023-12-20T02:02:53;99716.28;;;3.37;100.00
77979;BME280;67169;50.268;8.694;2023-12-20T02:05:20;99711.84;;;3.39;100.00
77979;BME280;67169;50.268;8.694;2023-12-20T02:07:48;99696.78;;;3.38;100.00
77979;BME280;67169;50.268;8.694;2023-12-20T02:10:15;99683.53;;;3.35;100.00
77979;BME280;67169;50.268;8.694;2023-12-20T02:12:42;99683.56;;;3.31;100.00
77979;BME280;67169;50.268;8.694;2023-12-20T02:15:09;99690.59;;;3.36;100.00
77979;BME280;67169;50.268;8.694;2023-12-20T02:17:36;99693.25;;;3.36;100.00
77979;BME280;67169;50.268;8.694;2023-12-20T02:20:03;99684.41;;;3.35;100.00
77979;BME280;67169;50.268;8.694;2023-12-20T02:22:32;99680.84;;;3.36;100.00
77979;BME280;67169;50.268;8.694;2023-12-20T02:24:59;99676.41;;;3.37;100.00
77979;BME280;67169;50.268;8.694;2023-12-20T02:27:25;99678.22;;;3.35;100.00
77979;BME280;67169;50.268;8.694;2023-12-20T02:29:52;99676.41;;;3.38;100.00
77979;BME280;67169;50.268;8.694;2023-12-20T02:32:19;99657.94;;;3.23;100.00
77979;BME280;67169;50.268;8.694;2023-12-20T02:34:47;99684.47;;;3.30;100.00
77979;BME280;67169;50.268;8.694;2023-12-20T02:37:14;99686.25;;;3.28;100.00
77979;BME280;67169;50.268;8.694;2023-12-20T02:39:42;99698.59;;;3.34;100.00
77979;BME280;67169;50.268;8.694;2023-12-20T02:42:08;99679.16;;;3.30;100.00
77979;BME280;67169;50.268;8.694;2023-12-20T02:44:35;99679.13;;;3.32;100.00
77979;BME280;67169;50.268;8.694;2023-12-20T02:47:02;99687.03;;;3.37;100.00
77979;BME280;67169;50.268;8.694;2023-12-20T02:49:28;99685.31;;;3.32;100.00
77979;BME280;67169;50.268;8.694;2023-12-20T02:51:55;99688.84;;;3.35;100.00
77979;BME280;67169;50.268;8.694;2023-12-20T02:54:22;99701.22;;;3.36;100.00
77979;BME280;67169;50.268;8.694;2023-12-20T02:56:49;99702.97;;;3.40;100.00
77979;BME280;67169;50.268;8.694;2023-12-20T02:59:16;99677.53;;;3.14;100.00
77979;BME280;67169;50.268;8.694;2023-12-20T03:01:44;99698.53;;;3.37;100.00
77979;BME280;67169;50.268;8.694;2023-12-20T03:04:11;99708.31;;;3.37;100.00
77979;BME280;67169;50.268;8.694;2023-12-20T03:06:38;99694.13;;;3.38;100.00
77979;BME280;67169;50.268;8.694;2023-12-20T03:09:04;99687.03;;;3.37;100.00
77979;BME280;67169;50.268;8.694;2023-12-20T03:11:31;99695.03;;;3.35;100.00
77979;BME280;67169;50.268;8.694;2023-12-20T03:13:59;99691.50;;;3.35;100.00
77979;BME280;67169;50.268;8.694;2023-12-20T03:16:25;99691.53;;;3.31;100.00
77979;BME280;67169;50.268;8.694;2023-12-20T03:18:52;99696.81;;;3.33;100.00
77979;BME280;67169;50.268;8.694;2023-12-20T03:21:18;99696.81;;;3.33;100.00
77979;BME280;67169;50.268;8.694;2023-12-20T03:23:45;99701.25;;;3.32;100.00
77979;BME280;67169;50.268;8.694;2023-12-20T03:26:11;99713.69;;;3.32;100.00
77979;BME280;67169;50.268;8.694;2023-12-20T03:28:38;99711.88;;;3.32;100.00
77979;BME280;67169;50.268;8.694;2023-12-20T03:31:06;99723.41;;;3.35;100.00
77979;BME280;67169;50.268;8.694;2023-12-20T03:33:33;99728.69;;;3.36;100.00
77979;BME280;67169;50.268;8.694;2023-12-20T03:35:59;99732.25;;;3.35;100.00
77979;BME280;67169;50.268;8.694;2023-12-20T03:38:26;99731.34;;;3.38;100.00
77979;BME280;67169;50.268;8.694;2023-12-20T03:40:52;99727.78;;;3.39;100.00
77979;BME280;67169;50.268;8.694;2023-12-20T03:43:19;99739.31;;;3.41;100.00
77979;BME280;67169;50.268;8.694;2023-12-20T03:45:46;99739.31;;;3.39;100.00
77979;BME280;67169;50.268;8.694;2023-12-20T03:48:14;99736.59;;;3.44;100.00
77979;BME280;67169;50.268;8.694;2023-12-20T03:50:40;99724.16;;;3.46;100.00
77979;BME280;67169;50.268;8.694;2023-12-20T03:53:07;99728.53;;;3.53;100.00
77979;BME280;67169;50.268;8.694;2023-12-20T03:55:33;99712.56;;;3.53;100.00
77979;BME280;67169;50.268;8.694;2023-12-20T03:58:00;99734.59;;;3.67;100.00
77979;BME280;67169;50.268;8.694;2023-12-20T04:00:27;99739.00;;;3.70;100.00
77979;BME280;67169;50.268;8.694;2023-12-20T04:02:53;99739.88;;;3.70;100.00
77979;BME280;67169;50.268;8.694;2023-12-20T04:05:21;99722.19;;;3.66;100.00
77979;BME280;67169;50.268;8.694;2023-12-20T04:07:48;99737.91;;;3.88;100.00
77979;BME280;67169;50.268;8.694;2023-12-20T04:10:15;99731.66;;;3.92;100.00
77979;BME280;67169;50.268;8.694;2023-12-20T04:12:42;99726.38;;;3.87;100.00
77979;BME280;67169;50.268;8.694;2023-12-20T04:15:09;99731.59;;;3.96;100.00
77979;BME280;67169;50.268;8.694;2023-12-20T04:17:37;99695.72;;;3.54;100.00
77979;BME280;67169;50.268;8.694;2023-12-20T04:20:05;99752.97;;;3.90;100.00
77979;BME280;67169;50.268;8.694;2023-12-20T04:22:33;99753.81;;;3.94;100.00
77979;BME280;67169;50.268;8.694;2023-12-20T04:24:59;99746.84;;;3.82;100.00
77979;BME280;67169;50.268;8.694;2023-12-20T04:27:26;99745.97;;;3.78;100.00
77979;BME280;67169;50.268;8.694;2023-12-20T04:29:52;99748.69;;;3.74;100.00
77979;BME280;67169;50.268;8.694;2023-12-20T04:32:19;99749.59;;;3.73;100.00
77979;BME280;67169;50.268;8.694;2023-12-20T04:34:45;99754.09;;;3.66;100.00
77979;BME280;67169;50.268;8.694;2023-12-20T04:37:12;99752.28;;;3.70;100.00
77979;BME280;67169;50.268;8.694;2023-12-20T04:39:40;99761.19;;;3.64;100.00
77979;BME280;67169;50.268;8.694;2023-12-20T04:42:07;99771.03;;;3.59;100.00
77979;BME280;67169;50.268;8.694;2023-12-20T04:44:34;99771.81;;;3.67;100.00
77979;BME280;67169;50.268;8.694;2023-12-20T04:47:01;99762.69;;;3.93;100.00
77979;BME280;67169;50.268;8.694;2023-12-20T04:49:27;99761.81;;;3.91;100.00
77979;BME280;67169;50.268;8.694;2023-12-20T04:51:54;99772.53;;;3.85;100.00
77979;BME280;67169;50.268;8.694;2023-12-20T04:54:20;99785.47;;;4.17;100.00
77979;BME280;67169;50.268;8.694;2023-12-20T04:56:49;99776.13;;;4.53;100.00
77979;BME280;67169;50.268;8.694;2023-12-20T04:59:16;99779.69;;;4.52;100.00
77979;BME280;67169;50.268;8.694;2023-12-20T05:01:42;99772.63;;;4.51;100.00
77979;BME280;67169;50.268;8.694;2023-12-20T05:04:09;99775.41;;;4.42;100.00
77979;BME280;67169;50.268;8.694;2023-12-20T05:06:35;99781.66;;;4.38;100.00
77979;BME280;67169;50.268;8.694;2023-12-20T05:09:02;99773.72;;;4.33;100.00
77979;BME280;67169;50.268;8.694;2023-12-20T05:11:29;99773.81;;;4.27;100.00
77979;BME280;67169;50.268;8.694;2023-12-20T05:13:57;99778.25;;;4.26;100.00
77979;BME280;67169;50.268;8.694;2023-12-20T05:16:23;99770.41;;;4.14;100.00
77979;BME280;67169;50.268;8.694;2023-12-20T05:18:51;99764.34;;;4.03;100.00
77979;BME280;67169;50.268;8.694;2023-12-20T05:21:18;99756.47;;;3.94;100.00
77979;BME280;67169;50.268;8.694;2023-12-20T05:23:45;99761.91;;;3.81;100.00
77979;BME280;67169;50.268;8.694;2023-12-20T05:26:12;99735.50;;;3.66;100.00
77979;BME280;67169;50.268;8.694;2023-12-20T05:28:38;99757.47;;;3.84;100.00
77979;BME280;67169;50.268;8.694;2023-12-20T05:31:06;99762.81;;;3.82;100.00
77979;BME280;67169;50.268;8.694;2023-12-20T05:33:33;99761.94;;;3.78;100.00
77979;BME280;67169;50.268;8.694;2023-12-20T05:35:59;99743.34;;;3.77;100.00
77979;BME280;67169;50.268;8.694;2023-12-20T05:38:26;99740.63;;;3.81;100.00
77979;BME280;67169;50.268;8.694;2023-12-20T05:40:53;99749.53;;;3.79;100.00
77979;BME280;67169;50.268;8.694;2023-12-20T05:43:19;99721.25;;;3.72;100.00
77979;BME280;67169;50.268;8.694;2023-12-20T05:45:46;99733.69;;;3.70;100.00
77979;BME280;67169;50.268;8.694;2023-12-20T05:48:14;99717.78;;;3.64;100.00
77979;BME280;67169;50.268;8.694;2023-12-20T05:50:41;99724.09;;;3.53;100.00
77979;BME280;67169;50.268;8.694;2023-12-20T05:53:07;99712.66;;;3.44;100.00
77979;BME280;67169;50.268;8.694;2023-12-20T05:55:34;99731.22;;;3.50;100.00
77979;BME280;67169;50.268;8.694;2023-12-20T05:58:01;99729.47;;;3.49;100.00
77979;BME280;67169;50.268;8.694;2023-12-20T06:00:28;99728.47;;;3.59;100.00
77979;BME280;67169;50.268;8.694;2023-12-20T06:02:54;99717.78;;;3.65;100.00
77979;BME280;67169;50.268;8.694;2023-12-20T06:05:22;99724.00;;;3.61;100.00
77979;BME280;67169;50.268;8.694;2023-12-20T06:07:49;99717.84;;;3.59;100.00
77979;BME280;67169;50.268;8.694;2023-12-20T06:10:16;99720.47;;;3.62;100.00
77979;BME280;67169;50.268;8.694;2023-12-20T06:12:42;99729.44;;;3.52;100.00
77979;BME280;67169;50.268;8.694;2023-12-20T06:15:09;99730.34;;;3.49;100.00
77979;BME280;67169;50.268;8.694;2023-12-20T06:17:36;99734.84;;;3.43;100.00
77979;BME280;67169;50.268;8.694;2023-12-20T06:20:03;99735.75;;;3.42;100.00
77979;BME280;67169;50.268;8.694;2023-12-20T06:22:34;99739.34;;;3.33;100.00
77979;BME280;67169;50.268;8.694;2023-12-20T06:25:01;99727.91;;;3.28;100.00
77979;BME280;67169;50.268;8.694;2023-12-20T06:27:28;99718.13;;;3.28;100.00
77979;BME280;67169;50.268;8.694;2023-12-20T06:29:55;99725.22;;;3.26;100.00
77979;BME280;67169;50.268;8.694;2023-12-20T06:32:22;99703.19;;;3.15;100.00
77979;BME280;67169;50.268;8.694;2023-12-20T06:34:49;99719.19;;;3.09;100.00
77979;BME280;67169;50.268;8.694;2023-12-20T06:37:16;99734.22;;;3.12;100.00
77979;BME280;67169;50.268;8.694;2023-12-20T06:39:44;99732.56;;;3.03;100.00
77979;BME280;67169;50.268;8.694;2023-12-20T06:42:12;99735.25;;;2.92;100.00
77979;BME280;67169;50.268;8.694;2023-12-20T06:44:39;99737.78;;;3.14;100.00
77979;BME280;67169;50.268;8.694;2023-12-20T06:47:05;99729.72;;;3.21;100.00
77979;BME280;67169;50.268;8.694;2023-12-20T06:49:32;99724.38;;;3.27;100.00
77979;BME280;67169;50.268;8.694;2023-12-20T06:51:59;99729.66;;;3.30;100.00
77979;BME280;67169;50.268;8.694;2023-12-20T06:54:25;99734.94;;;3.32;100.00
77979;BME280;67169;50.268;8.694;2023-12-20T06:56:53;99747.34;;;3.31;100.00
77979;BME280;67169;50.268;8.694;2023-12-20T06:59:20;99744.75;;;3.27;100.00
77979;BME280;67169;50.268;8.694;2023-12-20T07:01:47;99746.50;;;3.26;100.00
77979;BME280;67169;50.268;8.694;2023-12-20T07:04:15;99741.16;;;3.31;100.00
77979;BME280;67169;50.268;8.694;2023-12-20T07:06:42;99754.44;;;3.29;100.00
77979;BME280;67169;50.268;8.694;2023-12-20T07:09:08;99738.44;;;3.36;100.00
77979;BME280;67169;50.268;8.694;2023-12-20T07:11:35;99747.22;;;3.45;100.00
77979;BME280;67169;50.268;8.694;2023-12-20T07:14:03;99753.38;;;3.47;100.00
77979;BME280;67169;50.268;8.694;2023-12-20T07:16:29;99728.63;;;3.42;100.00
77979;BME280;67169;50.268;8.694;2023-12-20T07:18:56;99749.97;;;3.38;100.00
77979;BME280;67169;50.268;8.694;2023-12-20T07:21:23;99757.97;;;3.30;100.00
77979;BME280;67169;50.268;8.694;2023-12-20T07:23:48;99757.13;;;3.26;100.00
77979;BME280;67169;50.268;8.694;2023-12-20T07:26:15;99750.88;;;3.35;100.00
77979;BME280;67169;50.268;8.694;2023-12-20T07:28:42;99752.69;;;3.28;100.00
77979;BME280;67169;50.268;8.694;2023-12-20T07:31:10;99766.88;;;3.30;100.00
77979;BME280;67169;50.268;8.694;2023-12-20T07:33:36;99727.25;;;3.03;100.00
77979;BME280;67169;50.268;8.694;2023-12-20T07:36:03;99756.25;;;3.27;100.00
77979;BME280;67169;50.268;8.694;2023-12-20T07:38:30;99766.91;;;3.24;100.00
77979;BME280;67169;50.268;8.694;2023-12-20T07:40:56;99763.31;;;3.31;100.00
77979;BME280;67169;50.268;8.694;2023-12-20T07:43:23;99766.78;;;3.38;100.00
77979;BME280;67169;50.268;8.694;2023-12-20T07:45:49;99775.63;;;3.42;100.00
77979;BME280;67169;50.268;8.694;2023-12-20T07:48:17;99763.16;;;3.44;100.00
77979;BME280;67169;50.268;8.694;2023-12-20T07:50:44;99756.06;;;3.46;100.00
77979;BME280;67169;50.268;8.694;2023-12-20T07:53:10;99757.91;;;3.41;100.00
77979;BME280;67169;50.268;8.694;2023-12-20T07:55:37;99757.84;;;3.44;100.00
77979;BME280;67169;50.268;8.694;2023-12-20T07:58:05;99758.72;;;3.46;100.00
77979;BME280;67169;50.268;8.694;2023-12-20T08:00:31;99768.47;;;3.48;100.00
77979;BME280;67169;50.268;8.694;2023-12-20T08:02:58;99762.31;;;3.45;100.00
77979;BME280;67169;50.268;8.694;2023-12-20T08:05:26;99778.16;;;3.51;100.00
77979;BME280;67169;50.268;8.694;2023-12-20T08:07:52;99772.94;;;3.45;100.00
77979;BME280;67169;50.268;8.694;2023-12-20T08:10:19;99790.56;;;3.55;100.00
77979;BME280;67169;50.268;8.694;2023-12-20T08:12:46;99783.47;;;3.51;100.00
77979;BME280;67169;50.268;8.694;2023-12-20T08:15:12;99773.81;;;3.44;100.00
77979;BME280;67169;50.268;8.694;2023-12-20T08:17:39;99779.94;;;3.50;100.00
77979;BME280;67169;50.268;8.694;2023-12-20T08:20:07;99791.44;;;3.54;100.00
77979;BME280;67169;50.268;8.694;2023-12-20T08:22:35;99793.25;;;3.52;100.00
77979;BME280;67169;50.268;8.694;2023-12-20T08:25:02;99779.94;;;3.55;100.00
77979;BME280;67169;50.268;8.694;2023-12-20T08:27:28;99790.47;;;3.61;100.00
77979;BME280;67169;50.268;8.694;2023-12-20T08:29:57;99787.06;;;3.51;100.00
77979;BME280;67169;50.268;8.694;2023-12-20T08:32:25;99793.06;;;3.70;100.00
77979;BME280;67169;50.268;8.694;2023-12-20T08:34:51;99778.34;;;4.19;100.00
77979;BME280;67169;50.268;8.694;2023-12-20T08:37:18;99756.47;;;4.63;100.00
77979;BME280;67169;50.268;8.694;2023-12-20T08:39:46;99755.13;;;4.93;100.00
77979;BME280;67169;50.268;8.694;2023-12-20T08:42:11;99772.47;;;5.20;100.00
77979;BME280;67169;50.268;8.694;2023-12-20T08:44:38;99765.91;;;5.40;100.00
77979;BME280;67169;50.268;8.694;2023-12-20T08:47:05;99752.09;;;5.67;99.46
77979;BME280;67169;50.268;8.694;2023-12-20T08:49:31;99738.00;;;5.59;97.57
77979;BME280;67169;50.268;8.694;2023-12-20T08:51:58;99735.50;;;6.00;97.11
77979;BME280;67169;50.268;8.694;2023-12-20T08:54:24;99740.69;;;6.49;96.16
77979;BME280;67169;50.268;8.694;2023-12-20T08:56:52;99729.91;;;6.93;93.60
77979;BME280;67169;50.268;8.694;2023-12-20T08:59:19;99721.41;;;7.12;91.84
77979;BME280;67169;50.268;8.694;2023-12-20T09:01:45;99703.66;;;7.44;90.66
77979;BME280;67169;50.268;8.694;2023-12-20T09:04:13;99701.97;;;7.40;88.92
77979;BME280;67169;50.268;8.694;2023-12-20T09:06:40;99698.91;;;6.84;89.29
77979;BME280;67169;50.268;8.694;2023-12-20T09:09:06;99693.22;;;6.22;90.19
77979;BME280;67169;50.268;8.694;2023-12-20T09:11:35;99722.41;;;6.31;91.03
77979;BME280;67169;50.268;8.694;2023-12-20T09:14:03;99717.63;;;6.84;91.14
77979;BME280;67169;50.268;8.694;2023-12-20T09:16:30;99707.97;;;7.14;89.75
77979;BME280;67169;50.268;8.694;2023-12-20T09:18:56;99700.44;;;7.64;88.53
77979;BME280;67169;50.268;8.694;2023-12-20T09:21:23;99692.97;;;7.08;87.12
77979;BME280;67169;50.268;8.694;2023-12-20T09:23:49;99710.97;;;6.64;88.14
77979;BME280;67169;50.268;8.694;2023-12-20T09:26:16;99721.59;;;6.26;89.67
77979;BME280;67169;50.268;8.694;2023-12-20T09:28:43;99738.06;;;6.06;90.73
77979;BME280;67169;50.268;8.694;2023-12-20T09:31:11;99737.50;;;5.87;91.38
77979;BME280;67169;50.268;8.694;2023-12-20T09:33:37;99752.84;;;5.76;92.54
77979;BME280;67169;50.268;8.694;2023-12-20T09:36:04;99752.03;;;5.72;93.32
77979;BME280;67169;50.268;8.694;2023-12-20T09:38:31;99753.88;;;5.68;93.75
77979;BME280;67169;50.268;8.694;2023-12-20T09:40:58;99759.31;;;5.62;94.22
77979;BME280;67169;50.268;8.694;2023-12-20T09:43:26;99753.09;;;5.62;94.23
77979;BME280;67169;50.268;8.694;2023-12-20T09:46:00;99751.66;;;5.44;94.28
77979;BME280;67169;50.268;8.694;2023-12-20T09:48:29;99762.94;;;5.58;94.22
77979;BME280;67169;50.268;8.694;2023-12-20T09:50:56;99765.38;;;6.18;93.77
77979;BME280;67169;50.268;8.694;2023-12-20T09:53:24;99745.28;;;6.83;91.12
77979;BME280;67169;50.268;8.694;2023-12-20T09:55:55;99747.09;;;6.81;90.42
77979;BME280;67169;50.268;8.694;2023-12-20T09:58:24;99711.44;;;6.43;89.59
77979;BME280;67169;50.268;8.694;2023-12-20T10:00:51;99722.97;;;6.45;89.96
77979;BME280;67169;50.268;8.694;2023-12-20T10:03:24;99704.72;;;6.64;88.01
77979;BME280;67169;50.268;8.694;2023-12-20T10:05:55;99698.03;;;6.83;86.67
77979;BME280;67169;50.268;8.694;2023-12-20T10:08:24;99678.63;;;7.47;83.85
77979;BME280;67169;50.268;8.694;2023-12-20T10:10:50;99669.25;;;7.29;82.91
77979;BME280;67169;50.268;8.694;2023-12-20T10:13:17;99647.78;;;7.65;81.01
77979;BME280;67169;50.268;8.694;2023-12-20T10:15:44;99661.19;;;7.96;78.86
77979;BME280;67169;50.268;8.694;2023-12-20T10:18:12;99649.63;;;8.23;78.20
77979;BME280;67169;50.268;8.694;2023-12-20T10:20:39;99646.63;;;8.34;77.33
77979;BME280;67169;50.268;8.694;2023-12-20T10:23:08;99631.25;;;7.81;76.75
77979;BME280;67169;50.268;8.694;2023-12-20T10:25:34;99628.84;;;8.31;76.81
77979;BME280;67169;50.268;8.694;2023-12-20T10:28:11;99613.34;;;8.71;76.42
77979;BME280;67169;50.268;8.694;2023-12-20T10:30:39;99616.00;;;8.97;74.21
77979;BME280;67169;50.268;8.694;2023-12-20T10:33:06;99590.03;;;8.98;73.99
77979;BME280;67169;50.268;8.694;2023-12-20T10:35:33;99588.50;;;8.91;73.67
77979;BME280;67169;50.268;8.694;2023-12-20T10:38:03;99590.59;;;8.83;73.86
77979;BME280;67169;50.268;8.694;2023-12-20T10:40:34;99603.91;;;9.11;74.52
77979;BME280;67169;50.268;8.694;2023-12-20T10:43:02;99598.13;;;9.23;72.72
77979;BME280;67169;50.268;8.694;2023-12-20T10:45:29;99592.97;;;9.42;72.20
77979;BME280;67169;50.268;8.694;2023-12-20T10:47:56;99586.63;;;10.15;71.37
77979;BME280;67169;50.268;8.694;2023-12-20T10:50:24;99575.59;;;9.52;69.84
77979;BME280;67169;50.268;8.694;2023-12-20T10:52:54;99586.72;;;9.41;70.90
77979;BME280;67169;50.268;8.694;2023-12-20T10:55:21;99589.84;;;9.54;70.19
77979;BME280;67169;50.268;8.694;2023-12-20T10:57:50;99573.81;;;9.76;69.51
77979;BME280;67169;50.268;8.694;2023-12-20T11:00:18;99592.16;;;9.65;70.00
77979;BME280;67169;50.268;8.694;2023-12-20T11:02:45;99586.78;;;9.65;69.51
77979;BME280;67169;50.268;8.694;2023-12-20T11:05:22;99578.91;;;9.35;69.30
77979;BME280;67169;50.268;8.694;2023-12-20T11:07:52;99595.25;;;9.29;70.05
77979;BME280;67169;50.268;8.694;2023-12-20T11:10:26;99587.31;;;8.99;70.59
77979;BME280;67169;50.268;8.694;2023-12-20T11:13:00;99596.22;;;8.75;71.54
77979;BME280;67169;50.268;8.694;2023-12-20T11:15:28;99602.97;;;9.12;71.71
77979;BME280;67169;50.268;8.694;2023-12-20T11:17:56;99578.09;;;9.82;71.17
77979;BME280;67169;50.268;8.694;2023-12-20T11:20:23;99577.47;;;9.97;68.24
77979;BME280;67169;50.268;8.694;2023-12-20T11:22:53;99579.75;;;10.08;69.08
77979;BME280;67169;50.268;8.694;2023-12-20T11:25:20;99559.44;;;9.77;68.03
77979;BME280;67169;50.268;8.694;2023-12-20T11:28:09;99565.19;;;9.91;69.07
77979;BME280;67169;50.268;8.694;2023-12-20T11:30:45;99558.00;;;9.92;68.92
77979;BME280;67169;50.268;8.694;2023-12-20T11:33:13;99558.84;;;10.39;68.34
77979;BME280;67169;50.268;8.694;2023-12-20T11:35:39;99556.56;;;10.51;68.24
77979;BME280;67169;50.268;8.694;2023-12-20T11:38:08;99581.97;;;10.20;68.81
77979;BME280;67169;50.268;8.694;2023-12-20T11:40:35;99576.72;;;9.93;68.23
77979;BME280;67169;50.268;8.694;2023-12-20T11:43:02;99571.88;;;10.03;68.17
77979;BME280;67169;50.268;8.694;2023-12-20T11:45:30;99567.75;;;9.22;68.84
77979;BME280;67169;50.268;8.694;2023-12-20T11:47:57;99579.44;;;8.95;70.64
77979;BME280;67169;50.268;8.694;2023-12-20T11:50:24;99571.34;;;8.70;71.81
77979;BME280;67169;50.268;8.694;2023-12-20T11:52:52;99587.44;;;8.70;73.02
77979;BME280;67169;50.268;8.694;2023-12-20T11:55:19;99577.16;;;8.56;72.45
77979;BME280;67169;50.268;8.694;2023-12-20T11:57:45;99593.59;;;8.45;73.39
77979;BME280;67169;50.268;8.694;2023-12-20T12:00:13;99598.81;;;8.20;73.57
77979;BME280;67169;50.268;8.694;2023-12-20T12:02:41;99596.47;;;7.80;75.04
77979;BME280;67169;50.268;8.694;2023-12-20T12:05:08;99584.75;;;7.22;76.20
77979;BME280;67169;50.268;8.694;2023-12-20T12:07:35;99587.41;;;7.22;76.94
77979;BME280;67169;50.268;8.694;2023-12-20T12:10:03;99578.03;;;7.05;77.41
77979;BME280;67169;50.268;8.694;2023-12-20T12:12:29;99587.41;;;6.89;77.83
77979;BME280;67169;50.268;8.694;2023-12-20T12:14:57;99586.50;;;6.90;78.32
77979;BME280;67169;50.268;8.694;2023-12-20T12:17:24;99572.59;;;6.76;78.37
77979;BME280;67169;50.268;8.694;2023-12-20T12:20:02;99591.34;;;6.74;78.73
77979;BME280;67169;50.268;8.694;2023-12-20T12:22:29;99596.47;;;6.83;79.19
77979;BME280;67169;50.268;8.694;2023-12-20T12:24:59;99591.03;;;6.86;79.10
77979;BME280;67169;50.268;8.694;2023-12-20T12:27:26;99594.22;;;6.66;79.13
77979;BME280;67169;50.268;8.694;2023-12-20T12:30:00;99588.50;;;6.80;79.43
77979;BME280;67169;50.268;8.694;2023-12-20T12:32:28;99594.91;;;6.75;78.99
77979;BME280;67169;50.268;8.694;2023-12-20T12:34:56;99585.91;;;6.77;79.06
77979;BME280;67169;50.268;8.694;2023-12-20T12:37:23;99599.34;;;6.76;79.50
77979;BME280;67169;50.268;8.694;2023-12-20T12:39:53;99601.22;;;6.71;79.92
77979;BME280;67169;50.268;8.694;2023-12-20T12:42:19;99592.97;;;6.81;79.81
77979;BME280;67169;50.268;8.694;2023-12-20T12:44:47;99606.69;;;6.68;80.48
77979;BME280;67169;50.268;8.694;2023-12-20T12:47:13;99593.19;;;6.72;80.94
77979;BME280;67169;50.268;8.694;2023-12-20T12:49:40;99584.38;;;6.69;80.72
77979;BME280;67169;50.268;8.694;2023-12-20T12:52:08;99571.97;;;6.66;80.78
77979;BME280;67169;50.268;8.694;2023-12-20T12:54:35;99584.66;;;6.58;80.77
77979;BME280;67169;50.268;8.694;2023-12-20T12:57:01;99587.41;;;6.53;81.17
77979;BME280;67169;50.268;8.694;2023-12-20T12:59:28;99581.16;;;6.54;81.37
77979;BME280;67169;50.268;8.694;2023-12-20T13:01:55;99566.78;;;6.94;81.01